EHEH/EIN METAR and TAF weather

Enter ICAO airport designator
Station Type Date Time Source
EHEH METAR 2020/01/18 04:35 UTC NOAA

EHEH 180435Z AUTO 21011KT 180V240 9999 BKN013 OVC016 04/02 Q1021 GRN


Station Type Date Time Source
EHEH Decoded METAR 2020/01/18 04:35 UTC NOAA

Eindhoven, Netherlands (EHEH) 51-27N 005-25E 28M
Jan 17, 2020 - 11:35 PM EST / 2020.01.18 0435 UTC
Wind: from the SSW (210 degrees) at 13 MPH (11 KT) (direction variable):0
Visibility: greater than 7 mile(s):0
Sky conditions: overcast
Temperature: 39 F (4 C)
Dew Point: 35 F (2 C)
Relative Humidity: 86%
Pressure (altimeter): 30.15 in. Hg (1021 hPa)
ob: EHEH 180435Z AUTO 21011KT 180V240 9999 BKN013 OVC016 04/02 Q1021 GRN
cycle: 4

Station Type Date Time Source
EHEH TAF 2020/01/18 00:00 UTC NOAA

TAF EHEH 172325Z 1800/1906 24010KT 9999 FEW020 SCT030 PROB40
TEMPO 1801/1810 SCT008 BKN010 PROB30
TEMPO 1802/1906 SCT018CB BKN025
BECMG 1811/1813 28010KT

Example: see airport list